Nearby METAR Reports

 

EIDW - Dublin Airport, Ireland
Distance from station: NE 54mi, 87km
Updated: 16/01/2019 09:00
Partly cloudy
Partly cloudy
 Wind from WSW
Wind: WSW 13 km/h
Temperature: 5°C
Wind Chill: 2°C
Dew Point: 3°C
Humidity: 87%
Barometer: 1002 hPa
Clouds: Partly cloudy
Visibility: 10 km
Cloud details: Few Clouds 335 m
Partly cloudy 6096 m
2019/01/16 09:00 EIDW 160900Z 24007KT 190V280 9999 FEW011 SCT200 05/03 Q1002 NOSIG
EINN - Shannon Airport, Ireland
Distance from station: W 73mi, 117km
Updated: 16/01/2019 09:00
Partly cloudy
Partly cloudy
 Wind from WSW
Wind: WSW 19 km/h
Temperature: 6°C
Wind Chill: 3°C
Dew Point: 3°C
Humidity: 81%
Barometer: 1004 hPa
Clouds: Partly cloudy
Visibility: 10 km
Cloud details: Few Clouds 366 m
Few Clouds 549 m
Partly cloudy 1219 m
2019/01/16 09:00 EINN 160900Z 24010KT 9999 FEW012 FEW018CB SCT040 06/03 Q1004 NOSIG
 
EICK - Cork Arpt/Corcai, Ireland
Distance from station: SW 87mi, 141km
Updated: 16/01/2019 09:00
Few Clouds
Few Clouds
 Wind from SW
Wind: SW 13 km/h
Temperature: 3°C
Wind Chill: -1°C
Dew Point: 2°C
Humidity: 93%
Barometer: 1005 hPa
Clouds: Few Clouds
Visibility: 10 km
Cloud details: Few Clouds 914 m
2019/01/16 09:00 EICK 160900Z 23007KT 9999 FEW030 03/02 Q1005 NOSIG
EIKN - Connaught Apt, Ireland
Distance from station: NW 100mi, 161km
Updated: 16/01/2019 09:00
Light rain, Showers, Partly cloudy
Light rain, Showers, Partly cloudy
 Wind from WSW
Wind: WSW 22 km/h
Temperature: 2°C
Wind Chill: -3°C
Dew Point: 2°C
Humidity: 100%
Barometer: 1001 hPa
Summary: Light rain, Showers
Clouds: Partly cloudy
Visibility: 10 km
Cloud details: Few Clouds 488 m
Partly cloudy 549 m
2019/01/16 09:00 EIKN 160900Z 24012KT 210V270 9999 -SHRA FEW016 SCT018CB 02/02 Q1001 NOSIG
 
EGOV - Valley Raf, United Kingdom
Distance from station: ENE 114mi, 183km
Updated: 16/01/2019 08:50
Light rain, Overcast
Light rain, Overcast
 Wind from W
Wind: W 24 km/h
Temperature: 7°C
Wind Chill: 3°C
Dew Point: 5°C
Humidity: 87%
Barometer: 1002 hPa
Summary: Light rain
Clouds: Overcast
Visibility: 10 km
Cloud details: Few Clouds 427 m
Partly cloudy 549 m
Overcast 1158 m
2019/01/16 08:50 EGOV 160850Z 28013KT 9999 -RA FEW014 SCT018 OVC038 07/05 Q1002 WHT TEMPO 7000 RA WHT
EGAA - Belfast/Aldergro, United Kingdom
Distance from station: NNE 130mi, 209km
Updated: 16/01/2019 08:50
Few Clouds
Few Clouds
 Wind from SW
Wind: SW 17 km/h
Temperature: 4°C
Wind Chill: 0°C
Dew Point: 2°C
Humidity: 87%
Barometer: 1000 hPa
Clouds: Few Clouds
Visibility: 10 km
Cloud details: Few Clouds 152 m
2019/01/16 08:50 EGAA 160850Z 23009KT 9999 FEW005 04/02 Q1000
 
EGAC - Belfast Harbour, United Kingdom
Distance from station: NNE 134mi, 215km
Updated: 16/01/2019 08:50
Clear
Clear
 Wind from WSW
Wind: WSW 17 km/h
Temperature: 5°C
Wind Chill: 2°C
Dew Point: 3°C
Humidity: 87%
Barometer: 1000 hPa
Clouds: Clear
Visibility: 10 km
2019/01/16 08:50 EGAC 160850Z AUTO 24009KT 9999 NCD 05/03 Q1000
EGNS - Isle Of Man/Rona, United Kingdom
Distance from station: NE 135mi, 218km
Updated: 16/01/2019 08:50
Few Clouds
Few Clouds
 Wind from W
Wind: W 20 km/h
Temperature: 7°C
Wind Chill: 4°C
Dew Point: 4°C
Humidity: 81%
Barometer: 1000 hPa
Clouds: Few Clouds
Visibility: 10 km
Cloud details: Few Clouds 610 m
2019/01/16 08:50 EGNS 160850Z 27011KT 9999 FEW020 07/04 Q1000